Time;durP1;ratioP1;P1;durP2;ratioP2;P2;SDS_P1;SDS_P2;PMS_P1;PMS_P2;Temp;Humidity;BMP_temperature;BMP_pressure;BME280_temperature;BME280_humidity;BME280_pressure;Samples;Min_cycle;Max_cycle;Signal;HPM_P1;HPM_P2
2022/11/16 00:01:01;;;;;;;25.13;16.42;;;23.50;49.50;;;;;;7711478;22;83489;-56
2022/11/16 00:04:02;;;;;;;22.70;15.57;;;23.40;49.50;;;;;;7710768;22;83050;-56
2022/11/16 00:07:03;;;;;;;23.98;17.00;;;23.50;50.10;;;;;;7711748;22;83912;-57
2022/11/16 00:10:03;;;;;;;24.80;17.13;;;23.40;49.40;;;;;;7711683;22;82585;-57
2022/11/16 00:13:04;;;;;;;28.05;18.15;;;23.40;49.40;;;;;;7712917;22;83196;-57
2022/11/16 00:16:04;;;;;;;28.13;19.30;;;23.40;49.40;;;;;;7710813;22;82929;-57
2022/11/16 00:19:05;;;;;;;27.65;18.08;;;23.40;49.40;;;;;;7712579;22;83320;-57
2022/11/16 00:22:05;;;;;;;30.63;18.92;;;23.40;49.40;;;;;;7712508;22;88908;-57
2022/11/16 00:25:05;;;;;;;27.58;17.95;;;23.40;49.40;;;;;;7711417;22;82914;-56
2022/11/16 00:28:06;;;;;;;27.13;19.20;;;23.40;49.50;;;;;;7713496;22;83285;-57
2022/11/16 00:31:06;;;;;;;26.70;17.65;;;23.40;49.50;;;;;;7712130;22;82847;-57
2022/11/16 00:34:07;;;;;;;25.60;18.17;;;23.40;49.50;;;;;;7713272;22;82720;-57
2022/11/16 00:37:08;;;;;;;28.77;18.77;;;23.40;50.20;;;;;;7713368;22;83069;-58
2022/11/16 00:40:08;;;;;;;27.35;18.90;;;23.40;49.60;;;;;;7682758;22;85412;-57
2022/11/16 00:43:09;;;;;;;26.05;18.15;;;23.40;49.70;;;;;;7685379;22;84588;-59
2022/11/16 00:46:09;;;;;;;29.20;18.75;;;23.40;49.80;;;;;;7681006;22;84798;-59
2022/11/16 00:49:10;;;;;;;27.75;19.05;;;23.40;49.80;;;;;;7711076;22;84305;-59
2022/11/16 00:52:10;;;;;;;26.35;16.92;;;23.40;49.80;;;;;;7711767;22;83060;-59
2022/11/16 00:55:11;;;;;;;27.25;18.23;;;23.40;50.00;;;;;;7682058;22;85820;-59
2022/11/16 00:58:11;;;;;;;27.77;19.17;;;23.40;50.00;;;;;;7682521;22;85671;-59
2022/11/16 01:01:14;;;;;;;24.60;16.83;;;23.40;50.00;;;;;;7679891;22;85709;-58
2022/11/16 01:04:14;;;;;;;26.52;18.98;;;23.40;50.00;;;;;;7681892;22;85780;-58
2022/11/16 01:07:16;;;;;;;26.38;18.83;;;23.40;50.00;;;;;;7683718;22;84913;-57
2022/11/16 01:10:16;;;;;;;26.08;18.30;;;23.40;49.90;;;;;;7709300;22;84809;-58
2022/11/16 01:13:17;;;;;;;28.17;17.67;;;23.40;49.90;;;;;;7709645;22;83650;-56
2022/11/16 01:16:18;;;;;;;26.45;19.08;;;23.40;49.90;;;;;;7686010;22;86275;-57
2022/11/16 01:19:18;;;;;;;30.92;18.85;;;23.40;49.90;;;;;;7709989;22;84770;-58
2022/11/16 01:22:18;;;;;;;25.88;18.02;;;23.40;49.90;;;;;;7713317;22;83410;-56
2022/11/16 01:25:19;;;;;;;27.35;18.30;;;23.40;49.90;;;;;;7679848;22;86372;-57
2022/11/16 01:28:20;;;;;;;30.10;19.33;;;23.40;49.90;;;;;;7685007;22;84390;-58
2022/11/16 01:31:24;;;;;;;28.92;19.63;;;23.30;49.90;;;;;;7686059;22;85330;-58
2022/11/16 01:34:25;;;;;;;26.63;18.50;;;23.40;49.90;;;;;;7684117;22;84972;-58
2022/11/16 01:37:30;;;;;;;27.97;19.33;;;23.40;50.00;;;;;;7681565;22;84031;-58
2022/11/16 01:40:31;;;;;;;29.13;19.77;;;23.40;50.10;;;;;;7685016;22;85455;-57
2022/11/16 01:43:32;;;;;;;29.20;19.67;;;23.40;50.00;;;;;;7710131;22;84290;-55
2022/11/16 01:46:36;;;;;;;27.85;18.80;;;23.40;50.20;;;;;;7684437;22;85642;-56
2022/11/16 01:49:38;;;;;;;24.23;17.23;;;23.40;50.20;;;;;;7709798;22;83120;-55
2022/11/16 01:52:39;;;;;;;28.40;18.48;;;23.40;50.20;;;;;;7711441;22;83859;-55
2022/11/16 01:55:39;;;;;;;28.35;19.42;;;23.40;50.20;;;;;;7710257;22;82830;-56
2022/11/16 01:58:46;;;;;;;28.80;18.42;;;23.40;50.20;;;;;;7684306;22;84286;-57
2022/11/16 02:01:55;;;;;;;25.35;18.50;;;23.40;50.20;;;;;;7684229;22;90820;-58
2022/11/16 02:04:58;;;;;;;26.55;19.27;;;23.40;50.20;;;;;;7682534;22;85376;-58
2022/11/16 02:11:33;;;;;;;28.58;17.90;;;23.40;50.30;;;;;;7711295;22;83356;-57
2022/11/16 02:14:34;;;;;;;26.75;19.08;;;23.40;50.20;;;;;;7685288;22;85642;-56
2022/11/16 02:17:35;;;;;;;26.02;18.58;;;23.40;50.40;;;;;;7681789;22;85831;-57
2022/11/16 02:20:39;;;;;;;28.58;19.58;;;23.40;50.40;;;;;;7682348;22;84222;-58
2022/11/16 02:23:40;;;;;;;27.88;19.63;;;23.40;50.40;;;;;;7658284;22;85748;-58
2022/11/16 02:26:41;;;;;;;31.55;21.10;;;23.40;50.50;;;;;;7711207;22;83735;-58
2022/11/16 02:29:42;;;;;;;26.67;18.13;;;23.40;50.50;;;;;;7713854;22;83044;-57
2022/11/16 02:32:42;;;;;;;29.30;19.35;;;23.40;50.50;;;;;;7711083;22;83130;-57
2022/11/16 02:35:43;;;;;;;24.15;17.73;;;23.40;50.60;;;;;;7682529;22;85969;-58
2022/11/16 02:38:45;;;;;;;28.58;19.63;;;23.40;50.50;;;;;;7683072;22;84467;-59
2022/11/16 02:41:45;;;;;;;28.45;19.73;;;23.40;50.60;;;;;;7684824;22;85611;-58
2022/11/16 02:44:46;;;;;;;29.58;19.95;;;23.40;50.60;;;;;;7684562;22;85676;-58
2022/11/16 02:47:47;;;;;;;27.85;20.10;;;23.40;50.60;;;;;;7682690;22;85262;-59
2022/11/16 02:50:48;;;;;;;28.20;19.05;;;23.40;50.60;;;;;;7682114;22;85854;-58
2022/11/16 02:53:48;;;;;;;29.00;18.88;;;23.40;50.60;;;;;;7711646;22;83159;-58
2022/11/16 02:56:49;;;;;;;28.02;19.63;;;23.40;50.60;;;;;;7712045;22;83433;-58
2022/11/16 02:59:51;;;;;;;32.67;20.35;;;23.40;50.60;;;;;;7684014;22;85790;-58
2022/11/16 03:02:52;;;;;;;30.58;21.50;;;23.40;50.70;;;;;;7681720;22;85525;-58
2022/11/16 03:05:53;;;;;;;29.80;20.33;;;23.40;50.60;;;;;;7681782;22;85805;-58
2022/11/16 03:08:53;;;;;;;29.10;20.55;;;23.40;50.70;;;;;;7684839;22;85781;-58
2022/11/16 03:12:01;;;;;;;28.52;19.08;;;23.40;50.70;;;;;;7683140;22;85909;-56
2022/11/16 03:15:04;;;;;;;34.78;21.13;;;23.40;50.80;;;;;;7680332;22;85660;-56
2022/11/16 03:18:04;;;;;;;33.55;21.77;;;23.40;50.80;;;;;;7683121;22;85839;-57
2022/11/16 03:21:05;;;;;;;33.05;20.80;;;23.40;50.90;;;;;;7698802;22;83279;-56
2022/11/16 03:24:05;;;;;;;29.95;21.17;;;23.40;50.90;;;;;;7707576;22;83303;-55
2022/11/16 03:27:08;;;;;;;31.25;21.63;;;23.40;51.10;;;;;;7709092;22;83482;-57
2022/11/16 03:30:09;;;;;;;29.58;20.75;;;23.40;51.20;;;;;;7685222;22;85119;-53
2022/11/16 03:33:12;;;;;;;29.30;20.75;;;23.40;51.10;;;;;;7711627;22;82702;-54
2022/11/16 03:36:13;;;;;;;33.55;20.40;;;23.40;51.20;;;;;;7714021;22;82689;-55
2022/11/16 03:39:14;;;;;;;28.80;20.42;;;23.40;51.80;;;;;;7681717;22;86195;-56
2022/11/16 03:42:15;;;;;;;31.65;20.08;;;23.40;51.10;;;;;;7656548;22;83251;-55
2022/11/16 03:45:17;;;;;;;30.50;20.42;;;23.40;51.20;;;;;;7712030;22;82697;-56
2022/11/16 03:48:17;;;;;;;31.02;20.13;;;23.50;51.20;;;;;;7685914;22;84334;-55
2022/11/16 03:51:18;;;;;;;30.15;20.30;;;23.40;51.00;;;;;;7683635;22;85375;-54
2022/11/16 03:54:18;;;;;;;29.25;19.77;;;23.40;51.00;;;;;;7711811;22;84187;-55
2022/11/16 03:57:19;;;;;;;26.17;18.98;;;23.40;51.10;;;;;;7683844;22;86028;-56
2022/11/16 04:00:26;;;;;;;27.67;18.95;;;23.40;51.10;;;;;;7682477;22;85334;-56
2022/11/16 04:03:27;;;;;;;28.67;19.45;;;23.40;51.10;;;;;;7713269;22;84470;-55
2022/11/16 04:29:45;;;;;;;28.75;19.88;;;23.40;51.70;;;;;;7682723;22;85810;-55
2022/11/16 04:39:24;;;;;;;27.50;18.92;;;23.50;51.70;;;;;;7679629;22;86043;-55
2022/11/16 04:42:26;;;;;;;27.90;18.65;;;23.50;51.70;;;;;;7685062;22;84646;-54
2022/11/16 04:48:46;;;;;;;26.23;18.05;;;23.60;52.20;;;;;;7681923;22;85689;-57
2022/11/16 04:51:47;;;;;;;24.58;16.92;;;23.60;52.30;;;;;;7710955;22;82833;-58
2022/11/16 04:54:47;;;;;;;25.02;17.60;;;23.60;52.40;;;;;;7710980;22;82697;-56
2022/11/16 04:57:49;;;;;;;27.30;16.63;;;23.60;52.70;;;;;;7685340;22;84741;-57
2022/11/16 05:00:50;;;;;;;26.15;17.00;;;23.60;52.60;;;;;;7684038;22;85271;-58
2022/11/16 05:03:51;;;;;;;27.73;16.92;;;23.70;52.70;;;;;;7711845;22;83799;-58
2022/11/16 05:06:52;;;;;;;26.38;17.13;;;23.70;52.70;;;;;;7681136;22;85072;-62
2022/11/16 05:09:52;;;;;;;26.05;17.05;;;23.70;52.90;;;;;;7684370;22;85453;-59
2022/11/16 05:12:53;;;;;;;22.88;15.82;;;23.70;53.20;;;;;;7676735;22;85444;-59
2022/11/16 05:15:54;;;;;;;24.50;16.60;;;23.70;53.20;;;;;;7679321;22;85513;-58
2022/11/16 05:22:15;;;;;;;24.60;16.15;;;23.80;53.30;;;;;;7680960;22;85154;-58
2022/11/16 05:25:16;;;;;;;27.63;17.15;;;23.80;53.10;;;;;;7682339;22;83960;-57
2022/11/16 05:28:16;;;;;;;23.58;16.00;;;23.80;53.30;;;;;;7681192;22;84231;-58
2022/11/16 05:31:17;;;;;;;26.33;16.60;;;23.80;53.10;;;;;;7674563;22;86082;-56
2022/11/16 05:34:17;;;;;;;26.92;17.10;;;23.90;53.20;;;;;;7676899;22;85856;-62
2022/11/16 05:37:19;;;;;;;24.17;16.58;;;23.90;53.20;;;;;;7678781;22;85728;-58
2022/11/16 05:40:20;;;;;;;25.02;16.88;;;23.90;53.20;;;;;;7681645;22;84705;-58
2022/11/16 05:43:30;;;;;;;25.33;17.02;;;23.90;53.20;;;;;;7681987;22;86283;-57
2022/11/16 05:46:40;;;;;;;30.25;16.83;;;24.00;53.20;;;;;;7681286;22;85974;-56
2022/11/16 05:49:41;;;;;;;25.05;17.35;;;23.90;53.00;;;;;;7682991;22;84184;-52
2022/11/16 05:52:42;;;;;;;28.17;17.10;;;24.00;53.00;;;;;;7675436;22;85361;-62
2022/11/16 05:55:45;;;;;;;29.42;17.85;;;23.90;53.10;;;;;;7682275;22;84734;-56
2022/11/16 05:58:45;;;;;;;29.00;17.90;;;24.00;53.10;;;;;;7676264;22;88050;-52
2022/11/16 06:01:46;;;;;;;29.98;18.75;;;23.90;52.70;;;;;;7681346;22;85662;-57
2022/11/16 06:04:46;;;;;;;31.20;19.35;;;24.00;52.60;;;;;;7682698;22;85643;-57
2022/11/16 06:07:47;;;;;;;26.52;18.73;;;24.00;52.50;;;;;;7677691;22;84827;-56
2022/11/16 06:10:48;;;;;;;29.23;18.85;;;23.90;53.10;;;;;;7707970;22;83012;-55
2022/11/16 06:13:48;;;;;;;31.15;18.88;;;23.90;52.70;;;;;;7682049;22;85518;-56
2022/11/16 06:16:50;;;;;;;27.60;18.73;;;23.90;52.60;;;;;;7679584;22;85645;-56
2022/11/16 06:19:50;;;;;;;32.33;21.30;;;23.80;53.00;;;;;;7697226;22;87177;-56
2022/11/16 06:22:51;;;;;;;30.23;20.20;;;23.80;52.50;;;;;;7694178;22;84017;-55
2022/11/16 06:25:52;;;;;;;33.97;22.63;;;23.80;52.20;;;;;;7704492;22;83310;-55
2022/11/16 06:28:53;;;;;;;33.65;22.55;;;23.70;51.90;;;;;;7678102;22;85387;-53
2022/11/16 06:31:55;;;;;;;30.40;21.13;;;23.70;51.80;;;;;;7672503;22;85613;-61
2022/11/16 06:34:56;;;;;;;31.23;21.00;;;23.70;51.80;;;;;;7705734;22;84143;-59
2022/11/16 06:37:57;;;;;;;34.38;21.30;;;23.60;51.70;;;;;;7707962;22;83177;-58
2022/11/16 06:40:58;;;;;;;33.78;21.95;;;23.70;51.60;;;;;;7704697;22;82780;-61
2022/11/16 06:44:01;;;;;;;34.53;21.77;;;23.60;51.40;;;;;;7673645;22;86156;-60
2022/11/16 06:47:08;;;;;;;33.20;22.67;;;23.60;51.30;;;;;;7537186;22;84732;-59
2022/11/16 06:50:09;;;;;;;29.15;21.85;;;23.70;51.20;;;;;;7618425;22;86163;-59
2022/11/16 06:53:10;;;;;;;31.05;22.75;;;23.60;51.10;;;;;;7680767;22;84588;-59
2022/11/16 06:56:10;;;;;;;35.15;22.45;;;23.60;51.00;;;;;;7707549;22;85220;-60
2022/11/16 06:59:16;;;;;;;;;;;23.60;50.80;;;;;;7683061;22;85786;-60
2022/11/16 07:02:20;;;;;;;35.80;22.17;;;23.60;50.50;;;;;;7689848;22;83359;-60
2022/11/16 07:05:21;;;;;;;36.00;23.10;;;23.60;50.30;;;;;;7684170;22;84301;-60
2022/11/16 07:08:22;;;;;;;35.03;23.08;;;23.60;50.20;;;;;;7679816;22;86076;-59
2022/11/16 07:11:23;;;;;;;37.90;22.45;;;23.60;50.20;;;;;;7681928;22;84369;-59
2022/11/16 07:14:24;;;;;;;30.55;22.15;;;23.60;50.00;;;;;;7709382;22;84547;-60
2022/11/16 07:17:24;;;;;;;36.05;23.27;;;23.60;49.90;;;;;;7681781;22;85311;-60
2022/11/16 07:20:26;;;;;;;36.28;23.77;;;23.60;49.90;;;;;;7710816;22;83879;-61
2022/11/16 07:23:27;;;;;;;36.53;22.73;;;23.60;49.80;;;;;;7710962;22;83773;-61
2022/11/16 07:26:30;;;;;;;32.78;22.73;;;23.60;49.70;;;;;;7682210;22;85904;-60
2022/11/16 07:29:35;;;;;;;33.63;22.00;;;23.60;49.60;;;;;;7679234;22;83514;-59
2022/11/16 07:33:02;;;;;;;33.95;22.60;;;23.60;49.70;;;;;;7657450;22;83315;-59
2022/11/16 07:36:31;;;;;;;32.78;21.48;;;23.50;49.60;;;;;;7654346;22;84336;-59
2022/11/16 07:39:32;;;;;;;32.72;22.75;;;23.60;49.70;;;;;;7682676;22;85822;-59
2022/11/16 07:42:33;;;;;;;29.63;21.45;;;23.50;49.60;;;;;;7680927;22;85448;-59
2022/11/16 07:46:00;;;;;;;32.25;21.95;;;23.50;49.60;;;;;;7702432;22;82931;-58
2022/11/16 07:49:00;;;;;;;31.33;21.27;;;23.50;49.60;;;;;;7680873;22;84915;-58
2022/11/16 07:52:18;;;;;;;31.52;21.35;;;23.50;49.60;;;;;;7679764;22;84745;-58
2022/11/16 07:55:45;;;;;;;30.05;21.40;;;23.50;49.60;;;;;;7701950;22;83724;-58
2022/11/16 07:58:46;;;;;;;28.50;19.38;;;23.50;49.60;;;;;;7682152;22;86236;-58
2022/11/16 08:01:47;;;;;;;29.65;19.48;;;23.50;49.60;;;;;;7683026;22;85744;-58
2022/11/16 08:04:47;;;;;;;25.88;18.63;;;23.50;49.80;;;;;;7677823;22;84891;-60
2022/11/16 08:07:48;;;;;;;25.02;17.77;;;23.40;49.90;;;;;;7675841;22;85692;-59
2022/11/16 08:10:49;;;;;;;25.38;17.70;;;23.50;50.00;;;;;;7681915;22;84183;-60
2022/11/16 08:13:51;;;;;;;24.63;18.25;;;23.50;50.10;;;;;;7682974;22;88659;-59
2022/11/16 08:16:52;;;;;;;23.92;17.13;;;23.40;50.10;;;;;;7681478;22;84284;-60
2022/11/16 08:19:53;;;;;;;24.00;16.25;;;23.50;50.10;;;;;;7681442;22;86164;-61
2022/11/16 08:22:54;;;;;;;22.20;15.88;;;23.50;50.10;;;;;;7680397;22;85343;-61
2022/11/16 08:25:55;;;;;;;24.25;16.30;;;23.40;50.10;;;;;;7656073;22;87153;-60
2022/11/16 08:28:56;;;;;;;24.98;16.25;;;23.40;50.20;;;;;;7710510;22;83257;-59
2022/11/16 08:32:02;;;;;;;;;;;23.40;50.20;;;;;;7684277;22;84291;-60
2022/11/16 08:35:02;;;;;;;22.33;16.40;;;23.40;50.20;;;;;;7693431;22;84103;-60
2022/11/16 08:38:03;;;;;;;21.98;14.90;;;23.40;50.10;;;;;;7711220;22;83176;-61
2022/11/16 08:41:04;;;;;;;22.90;14.23;;;23.40;50.10;;;;;;7676853;22;85477;-60
2022/11/16 08:44:04;;;;;;;21.80;14.43;;;23.40;50.00;;;;;;7683362;22;85473;-59
2022/11/16 08:47:08;;;;;;;20.63;14.05;;;23.40;50.00;;;;;;7678451;22;84645;-59
2022/11/16 08:50:20;;;;;;;18.77;13.18;;;23.30;49.90;;;;;;7679793;22;84787;-59
2022/11/16 08:53:20;;;;;;;16.73;12.93;;;23.30;50.10;;;;;;7703412;22;84391;-59
2022/11/16 08:56:21;;;;;;;19.50;13.63;;;23.30;50.10;;;;;;7673855;22;85696;-59
2022/11/16 08:59:22;;;;;;;20.13;12.60;;;23.30;50.10;;;;;;7674543;22;85595;-59
2022/11/16 09:02:25;;;;;;;17.20;12.55;;;23.30;50.00;;;;;;7677062;22;85195;-59
2022/11/16 09:05:26;;;;;;;15.75;11.93;;;23.30;50.00;;;;;;7704508;22;83515;-59
2022/11/16 09:08:26;;;;;;;20.27;11.95;;;23.20;50.00;;;;;;7703003;22;83845;-59
2022/11/16 09:11:27;;;;;;;14.75;11.25;;;23.30;50.00;;;;;;7704605;22;83177;-59
2022/11/16 09:14:29;;;;;;;17.73;11.30;;;23.20;49.90;;;;;;7709006;22;83409;-59
2022/11/16 09:17:30;;;;;;;14.60;10.63;;;23.20;49.90;;;;;;7708770;22;82994;-59
2022/11/16 09:20:30;;;;;;;14.38;10.32;;;23.20;49.90;;;;;;7708343;22;83796;-59
2022/11/16 09:23:31;;;;;;;15.18;9.85;;;23.20;49.90;;;;;;7709393;22;83713;-59
2022/11/16 09:26:31;;;;;;;13.20;9.60;;;23.20;49.90;;;;;;7713897;22;81766;-59
2022/11/16 09:29:32;;;;;;;12.23;9.55;;;23.20;49.80;;;;;;7709451;22;81803;-59
2022/11/16 09:32:32;;;;;;;12.23;8.88;;;23.20;49.90;;;;;;7713079;22;80842;-59
2022/11/16 09:35:32;;;;;;;10.20;8.50;;;23.20;49.40;;;;;;7715579;22;80914;-59
2022/11/16 09:38:33;;;;;;;10.75;8.40;;;23.20;49.40;;;;;;7703855;22;80854;-60
2022/11/16 09:41:34;;;;;;;10.48;8.27;;;23.30;49.30;;;;;;7709947;22;80801;-60
2022/11/16 09:44:34;;;;;;;9.63;7.43;;;23.30;49.00;;;;;;7711266;22;80395;-60
2022/11/16 09:47:35;;;;;;;10.10;8.25;;;23.40;48.90;;;;;;7711745;22;81423;-60
2022/11/16 09:50:35;;;;;;;10.38;8.05;;;23.40;48.80;;;;;;7712098;22;82123;-60
2022/11/16 09:53:36;;;;;;;10.43;8.07;;;23.50;48.60;;;;;;7713714;22;81291;-59
2022/11/16 09:56:36;;;;;;;9.40;7.03;;;23.50;48.50;;;;;;7711012;22;81817;-59
2022/11/16 09:59:37;;;;;;;10.10;7.20;;;23.50;48.50;;;;;;7710800;22;81989;-59
2022/11/16 10:02:37;;;;;;;9.65;6.60;;;23.50;48.60;;;;;;7685034;22;80598;-60
2022/11/16 10:05:38;;;;;;;9.32;7.15;;;23.50;48.50;;;;;;7713045;22;80264;-60
2022/11/16 10:08:38;;;;;;;10.20;7.25;;;23.50;48.50;;;;;;7712393;22;80757;-60
2022/11/16 10:11:39;;;;;;;10.00;7.22;;;23.50;48.50;;;;;;7712213;22;80259;-60
2022/11/16 10:14:39;;;;;;;9.13;6.70;;;23.50;48.60;;;;;;7662644;22;83171;-61
2022/11/16 10:17:40;;;;;;;7.80;5.97;;;23.60;48.60;;;;;;7711800;22;80841;-61
2022/11/16 10:20:40;;;;;;;8.45;6.03;;;23.60;48.70;;;;;;7686983;22;86899;-61
2022/11/16 10:23:41;;;;;;;8.32;6.25;;;23.60;48.70;;;;;;7715810;22;81578;-61
2022/11/16 10:26:41;;;;;;;9.82;7.13;;;23.60;48.70;;;;;;7715662;22;81747;-61
2022/11/16 10:29:42;;;;;;;9.75;6.40;;;23.60;48.70;;;;;;7715031;22;82230;-60
2022/11/16 10:32:42;;;;;;;8.40;6.60;;;23.60;48.70;;;;;;7713464;22;80361;-60
2022/11/16 10:35:43;;;;;;;6.60;5.25;;;23.60;48.80;;;;;;7715584;22;80338;-60
2022/11/16 10:38:43;;;;;;;7.93;5.78;;;23.60;48.80;;;;;;7712538;22;80358;-60
2022/11/16 10:41:44;;;;;;;5.70;4.57;;;23.60;48.80;;;;;;7713217;22;80467;-61
2022/11/16 10:44:44;;;;;;;6.05;5.25;;;23.60;48.70;;;;;;7685860;22;81491;-60
2022/11/16 10:47:45;;;;;;;7.57;5.30;;;23.60;48.80;;;;;;7711578;22;81514;-60
2022/11/16 10:50:46;;;;;;;7.13;5.68;;;23.60;48.70;;;;;;7714274;22;80863;-60
2022/11/16 10:53:46;;;;;;;6.57;5.50;;;23.60;48.60;;;;;;7711580;22;80729;-60
2022/11/16 10:56:47;;;;;;;7.18;5.43;;;23.60;48.60;;;;;;7714030;22;80598;-59
2022/11/16 10:59:47;;;;;;;6.38;4.72;;;23.60;48.60;;;;;;7711977;22;81430;-59
2022/11/16 11:02:48;;;;;;;5.60;4.97;;;23.60;48.50;;;;;;7710474;22;80703;-59
2022/11/16 11:05:48;;;;;;;6.03;4.88;;;23.60;49.00;;;;;;7711818;22;81453;-60
2022/11/16 11:08:49;;;;;;;8.88;5.28;;;23.60;48.30;;;;;;7706438;22;80689;-60
2022/11/16 11:15:09;;;;;;;6.43;4.70;;;23.60;48.10;;;;;;7708486;22;80541;-59
2022/11/16 11:18:09;;;;;;;5.28;4.43;;;23.50;48.00;;;;;;7711811;22;81538;-60
2022/11/16 11:21:10;;;;;;;7.15;5.00;;;23.50;48.00;;;;;;7712007;22;80801;-58
2022/11/16 11:24:11;;;;;;;6.60;4.80;;;23.50;48.10;;;;;;7712765;22;81265;-57
2022/11/16 11:27:11;;;;;;;5.20;4.63;;;23.50;48.00;;;;;;7711693;22;81241;-58
2022/11/16 11:30:12;;;;;;;9.15;4.80;;;23.50;48.00;;;;;;7714740;22;80895;-58
2022/11/16 11:33:12;;;;;;;5.90;4.80;;;23.50;47.90;;;;;;7712315;22;80864;-58
2022/11/16 11:36:13;;;;;;;7.80;4.88;;;23.50;48.00;;;;;;7714309;22;80373;-58
2022/11/16 11:39:13;;;;;;;5.28;4.55;;;23.50;47.90;;;;;;7710982;22;80841;-58
2022/11/16 11:42:14;;;;;;;6.20;4.75;;;23.50;48.00;;;;;;7710638;22;80479;-58
2022/11/16 11:45:15;;;;;;;5.32;4.70;;;23.40;48.00;;;;;;7710158;22;81275;-58
2022/11/16 11:48:15;;;;;;;5.13;4.10;;;23.40;48.00;;;;;;7710781;22;80446;-58
2022/11/16 11:51:15;;;;;;;6.15;4.38;;;23.40;47.90;;;;;;7712019;22;82333;-59
2022/11/16 11:54:16;;;;;;;5.43;4.32;;;23.40;48.00;;;;;;7686068;22;80549;-59
2022/11/16 11:57:19;;;;;;;5.55;4.53;;;23.40;48.10;;;;;;7712354;22;80341;-58
2022/11/16 12:00:20;;;;;;;9.48;4.30;;;23.40;48.00;;;;;;7678846;22;80824;-59
2022/11/16 12:03:20;;;;;;;6.50;4.30;;;23.40;47.90;;;;;;7712997;22;80953;-57
2022/11/16 12:06:21;;;;;;;5.82;4.25;;;23.40;47.80;;;;;;7714780;22;79994;-58
2022/11/16 12:09:21;;;;;;;6.15;4.75;;;23.40;47.70;;;;;;7715585;22;81416;-59
2022/11/16 12:12:21;;;;;;;4.85;4.25;;;23.40;47.90;;;;;;7712684;22;82258;-58
2022/11/16 12:15:22;;;;;;;4.65;3.78;;;23.40;47.60;;;;;;7714117;22;80354;-58
2022/11/16 12:18:23;;;;;;;4.28;3.78;;;23.30;47.60;;;;;;7716113;22;80629;-58
2022/11/16 12:21:23;;;;;;;5.55;4.20;;;23.30;47.80;;;;;;7710422;22;80285;-59
2022/11/16 12:24:24;;;;;;;5.15;4.25;;;23.30;47.90;;;;;;7711769;22;80482;-58
2022/11/16 12:27:25;;;;;;;4.43;3.92;;;23.30;48.00;;;;;;7713379;22;80434;-59
2022/11/16 12:30:26;;;;;;;4.85;4.35;;;23.30;47.90;;;;;;7715716;22;80553;-59
2022/11/16 12:33:26;;;;;;;4.60;3.80;;;23.30;47.90;;;;;;7685460;22;82474;-58
2022/11/16 12:36:27;;;;;;;4.38;3.97;;;23.30;47.90;;;;;;7711686;22;80501;-59
2022/11/16 12:39:27;;;;;;;4.20;3.80;;;23.30;47.90;;;;;;7709173;22;80537;-57
2022/11/16 12:42:28;;;;;;;3.97;3.45;;;23.30;47.90;;;;;;7673607;22;82191;-58
2022/11/16 12:45:29;;;;;;;5.70;4.20;;;23.30;47.80;;;;;;7704228;22;80693;-59
2022/11/16 12:48:30;;;;;;;4.30;3.83;;;23.30;47.90;;;;;;7712736;22;81002;-58
2022/11/16 12:51:30;;;;;;;4.50;3.53;;;23.30;47.90;;;;;;7709838;22;86872;-58
2022/11/16 12:54:31;;;;;;;4.20;3.70;;;23.30;47.90;;;;;;7712991;22;81082;-59
2022/11/16 12:57:31;;;;;;;4.28;3.45;;;23.20;47.80;;;;;;7712267;22;81204;-59
2022/11/16 13:00:32;;;;;;;4.00;3.30;;;23.20;47.80;;;;;;7711850;22;80455;-60
2022/11/16 13:03:32;;;;;;;4.03;3.60;;;23.20;47.90;;;;;;7706509;22;80626;-60
2022/11/16 13:06:33;;;;;;;4.43;3.45;;;23.20;47.80;;;;;;7705952;22;80342;-60
2022/11/16 13:09:33;;;;;;;3.60;3.03;;;23.20;48.00;;;;;;7712746;22;81360;-60
2022/11/16 13:12:34;;;;;;;3.85;3.10;;;23.20;48.00;;;;;;7710898;22;80271;-58
2022/11/16 13:15:35;;;;;;;4.53;3.10;;;23.20;48.00;;;;;;7682933;22;81388;-58
2022/11/16 13:18:36;;;;;;;3.85;3.08;;;23.20;48.10;;;;;;7709580;22;81645;-59
2022/11/16 13:21:37;;;;;;;4.75;3.28;;;23.20;48.20;;;;;;7714879;22;81401;-59
2022/11/16 13:24:37;;;;;;;3.15;2.85;;;23.20;48.20;;;;;;7687052;22;81604;-58
2022/11/16 13:27:37;;;;;;;3.42;2.72;;;23.10;48.20;;;;;;7708598;22;80334;-58
2022/11/16 13:30:38;;;;;;;2.70;2.50;;;23.20;48.40;;;;;;7713051;22;80619;-59
2022/11/16 13:33:39;;;;;;;3.67;2.50;;;23.10;48.40;;;;;;7684246;22;81749;-59
2022/11/16 13:36:42;;;;;;;3.22;2.47;;;23.10;48.40;;;;;;7716190;22;80133;-59
2022/11/16 13:39:42;;;;;;;3.70;2.70;;;23.10;48.40;;;;;;7703212;22;80864;-59
2022/11/16 13:42:43;;;;;;;3.30;2.58;;;23.10;48.40;;;;;;7707776;22;81224;-58
2022/11/16 13:45:44;;;;;;;2.90;2.58;;;23.10;48.40;;;;;;7704477;22;80336;-59
2022/11/16 13:48:45;;;;;;;3.25;2.63;;;23.10;48.40;;;;;;7709288;22;80209;-59
2022/11/16 13:51:45;;;;;;;3.42;2.70;;;23.10;48.40;;;;;;7713342;22;80841;-59
2022/11/16 13:54:46;;;;;;;2.78;2.35;;;23.10;48.40;;;;;;7713019;22;81714;-60
2022/11/16 13:57:46;;;;;;;2.75;2.55;;;23.10;48.40;;;;;;7713083;22;81763;-60
2022/11/16 14:00:47;;;;;;;2.70;2.50;;;23.10;48.40;;;;;;7710909;22;80769;-60
2022/11/16 14:03:47;;;;;;;2.97;2.63;;;23.10;48.40;;;;;;7711821;22;81277;-60
2022/11/16 14:06:48;;;;;;;3.53;2.50;;;23.10;48.30;;;;;;7711707;22;80125;-59
2022/11/16 14:09:48;;;;;;;2.60;2.40;;;23.10;48.20;;;;;;7710443;22;80817;-59
2022/11/16 14:12:50;;;;;;;2.60;2.28;;;23.10;48.10;;;;;;7708717;22;80996;-60
2022/11/16 14:15:51;;;;;;;3.90;2.45;;;23.10;48.30;;;;;;7713083;22;80392;-60
2022/11/16 14:18:51;;;;;;;2.70;2.15;;;23.10;48.40;;;;;;7714257;22;81373;-61
2022/11/16 14:21:51;;;;;;;3.55;2.75;;;23.10;47.80;;;;;;7702435;22;80332;-60
2022/11/16 14:24:52;;;;;;;3.22;2.53;;;23.20;47.80;;;;;;7675105;22;80758;-57
2022/11/16 14:27:52;;;;;;;2.97;2.10;;;23.20;47.80;;;;;;7679982;22;81823;-58
2022/11/16 14:30:53;;;;;;;2.67;2.45;;;23.20;47.60;;;;;;7709674;22;80945;-57
2022/11/16 14:33:53;;;;;;;2.97;2.63;;;23.20;47.40;;;;;;7707196;22;80928;-57
2022/11/16 14:36:54;;;;;;;3.53;2.47;;;23.30;47.30;;;;;;7709526;22;80366;-56
2022/11/16 14:39:54;;;;;;;2.85;2.55;;;23.30;47.20;;;;;;7712473;22;80402;-57
2022/11/16 14:42:55;;;;;;;2.95;2.67;;;23.40;47.20;;;;;;7713214;22;80307;-57
2022/11/16 14:45:55;;;;;;;2.45;2.15;;;23.40;47.20;;;;;;7712140;22;80451;-57
2022/11/16 14:48:56;;;;;;;3.28;2.45;;;23.40;47.20;;;;;;7713578;22;80803;-58
2022/11/16 14:51:56;;;;;;;3.10;2.45;;;23.40;47.10;;;;;;7713133;22;80946;-57
2022/11/16 14:54:58;;;;;;;2.50;2.30;;;23.40;47.10;;;;;;7713695;22;80757;-57
2022/11/16 14:57:58;;;;;;;2.47;2.00;;;23.40;47.00;;;;;;7712589;22;81368;-55
2022/11/16 15:00:59;;;;;;;3.75;2.40;;;23.50;47.10;;;;;;7710032;22;81325;-57
2022/11/16 15:04:01;;;;;;;2.08;1.90;;;23.40;47.00;;;;;;7686469;22;83662;-57
2022/11/16 15:07:01;;;;;;;2.60;2.00;;;23.40;47.00;;;;;;7711982;22;81126;-59
2022/11/16 15:10:02;;;;;;;3.17;2.40;;;23.50;47.00;;;;;;7706304;22;80515;-64
2022/11/16 15:13:02;;;;;;;2.45;2.13;;;23.50;47.00;;;;;;7685083;22;80169;-65
2022/11/16 15:16:03;;;;;;;3.35;2.28;;;23.50;47.10;;;;;;7710701;22;81761;-59
2022/11/16 15:19:03;;;;;;;9.80;2.40;;;23.50;47.10;;;;;;7711752;22;80306;-64
2022/11/16 15:22:04;;;;;;;4.40;2.40;;;23.50;47.10;;;;;;7712810;22;81523;-58
2022/11/16 15:25:04;;;;;;;6.53;2.53;;;23.60;47.70;;;;;;7710841;22;79978;-61
2022/11/16 15:28:05;;;;;;;7.60;2.83;;;23.60;48.10;;;;;;7717658;22;81317;-60
2022/11/16 15:31:05;;;;;;;2.30;2.10;;;23.70;48.10;;;;;;7701244;22;81227;-60
2022/11/16 15:34:06;;;;;;;4.20;2.50;;;23.70;48.30;;;;;;7710341;22;80975;-59
2022/11/16 15:37:06;;;;;;;3.03;2.53;;;23.70;48.60;;;;;;7689804;22;83559;-58
2022/11/16 15:40:07;;;;;;;4.22;2.45;;;23.70;48.50;;;;;;7717440;22;80934;-58
2022/11/16 15:43:07;;;;;;;4.03;2.40;;;23.70;48.30;;;;;;7710805;22;81140;-59
2022/11/16 15:46:08;;;;;;;4.28;2.42;;;23.80;48.50;;;;;;7710596;22;80684;-60
2022/11/16 15:49:08;;;;;;;5.90;2.92;;;23.70;48.50;;;;;;7711127;22;80137;-59
2022/11/16 15:52:10;;;;;;;4.25;2.70;;;23.70;48.80;;;;;;7710806;22;80156;-60
2022/11/16 15:55:10;;;;;;;3.30;2.75;;;23.70;49.10;;;;;;7708065;22;80819;-59
2022/11/16 15:58:11;;;;;;;4.88;2.95;;;23.60;49.30;;;;;;7707624;22;82300;-60
2022/11/16 16:01:12;;;;;;;4.57;2.60;;;23.60;49.40;;;;;;7699654;22;81944;-62
2022/11/16 16:04:13;;;;;;;3.78;2.85;;;23.60;49.40;;;;;;7697930;22;80343;-62
2022/11/16 16:07:13;;;;;;;5.60;3.00;;;23.60;49.60;;;;;;7711111;22;80910;-63
2022/11/16 16:10:14;;;;;;;3.72;2.70;;;23.60;49.70;;;;;;7711695;22;81657;-61
2022/11/16 16:13:14;;;;;;;4.03;2.17;;;23.60;49.70;;;;;;7682909;22;81486;-60